Terminal Aerodrome Forecast
Issued by NWS

Current Version | Previous Version | Graphics & Text | Print | Product List | Glossary On
Versions: 1 2 3 4 5 6 7 8 9 10 11 12 13 14 15 16 17 18 19 20
000
FTUS41 KPBZ 211700 RRA
TAFHLG
TAF
KHLG 211747Z 2118/2218 00000KT P6SM FEW030 BKN040 OVC070
     FM220900 VRB03KT 4SM BR SCT040 BKN060
     FM221000 00000KT 1 1/2SM BR BKN003
     FM221500 17003KT P6SM BKN250=

USA.gov is the U.S. government's official web portal to all federal, state and local government web resources and services.